Time;durP1;ratioP1;P1;durP2;ratioP2;P2;SDS_P1;SDS_P2;PMS_P1;PMS_P2;Temp;Humidity;BMP_temperature;BMP_pressure;BME280_temperature;BME280_humidity;BME280_pressure;Samples;Min_cycle;Max_cycle;Signal;HPM_P1;HPM_P2
2024/01/26 00:00:05;;;;;;;;;;;35.20;78.80;;;;;;5113530;28;19908;-71
2024/01/26 00:02:31;;;;;;;;;;;35.20;79.30;;;;;;5113775;27;20284;-71
2024/01/26 00:04:58;;;;;;;;;;;35.30;78.90;;;;;;5113543;28;19926;-68
2024/01/26 00:07:25;;;;;;;;;;;35.40;78.40;;;;;;5113774;28;19908;-75
2024/01/26 00:09:51;;;;;;;;;;;35.50;78.50;;;;;;5121306;27;19908;-70
2024/01/26 00:12:18;;;;;;;;;;;35.50;79.30;;;;;;5134234;27;19956;-74
2024/01/26 00:14:44;;;;;;;;;;;35.60;78.90;;;;;;5134558;27;19946;-76
2024/01/26 00:17:11;;;;;;;;;;;35.60;78.90;;;;;;5134590;27;19999;-69
2024/01/26 00:19:38;;;;;;;;;;;35.60;78.50;;;;;;5134893;27;20309;-75
2024/01/26 00:22:04;;;;;;;;;;;35.60;78.70;;;;;;5134693;27;19947;-73
2024/01/26 00:24:33;;;;;;;;;;;35.50;78.90;;;;;;5134320;27;20352;-77
2024/01/26 00:26:59;;;;;;;;;;;35.50;78.90;;;;;;5120530;27;20356;-74
2024/01/26 00:29:26;;;;;;;;;;;35.50;78.90;;;;;;5113897;28;19919;-76
2024/01/26 00:31:52;;;;;;;;;;;35.60;79.10;;;;;;5113887;28;19912;-68
2024/01/26 00:34:19;;;;;;;;;;;35.60;79.60;;;;;;5113561;28;19931;-74
2024/01/26 00:36:46;;;;;;;;;;;35.60;79.20;;;;;;5110749;28;19915;-75
2024/01/26 00:39:12;;;;;;;;;;;35.60;79.50;;;;;;5113106;28;20394;-75
2024/01/26 00:41:39;;;;;;;;;;;35.60;79.20;;;;;;5113444;28;20364;-75
2024/01/26 00:44:06;;;;;;;;;;;35.60;79.30;;;;;;5123053;27;19914;-76
2024/01/26 00:46:33;;;;;;;;;;;35.70;79.20;;;;;;5118362;27;19916;-70
2024/01/26 00:48:59;;;;;;;;;;;35.80;79.00;;;;;;5115495;28;19908;-75
2024/01/26 00:51:26;;;;;;;;;;;35.80;79.00;;;;;;5124540;27;20367;-73
2024/01/26 00:53:52;;;;;;;;;;;35.90;79.40;;;;;;5133660;27;19915;-70
2024/01/26 00:56:19;;;;;;;;;;;36.00;79.20;;;;;;5133332;27;20374;-70
2024/01/26 00:58:50;;;;;;;;;;;36.10;78.90;;;;;;5127407;27;21499;-71
2024/01/26 01:01:17;;;;;;;;;;;36.30;78.90;;;;;;5112565;28;20364;-66
2024/01/26 01:03:44;;;;;;;;;;;36.50;78.90;;;;;;5112467;28;19912;-71
2024/01/26 01:06:11;;;;;;;;;;;36.60;79.00;;;;;;5112055;28;20342;-66
2024/01/26 01:08:37;;;;;;;;;;;36.80;79.00;;;;;;5110291;28;19947;-72
2024/01/26 01:11:05;;;;;;;;;;;36.90;78.50;;;;;;5111379;28;20266;-68
2024/01/26 01:13:33;;;;;;;;;;;36.90;78.00;;;;;;5108999;28;19985;-71
2024/01/26 01:16:00;;;;;;;;;;;37.00;77.70;;;;;;5111757;28;19920;-68
2024/01/26 01:18:27;;;;;;;;;;;37.10;77.50;;;;;;5112145;28;19919;-64
2024/01/26 01:20:54;;;;;;;;;;;37.10;76.20;;;;;;5109343;28;20229;-64
2024/01/26 01:23:20;;;;;;;;;;;37.20;76.20;;;;;;5114203;28;19912;-66
2024/01/26 01:25:47;;;;;;;;;;;37.30;77.00;;;;;;5111990;28;19908;-68
2024/01/26 01:28:13;;;;;;;;;;;37.30;75.50;;;;;;5109663;28;19955;-65
2024/01/26 01:30:40;;;;;;;;;;;37.40;76.10;;;;;;5112158;28;19908;-70
2024/01/26 01:33:07;;;;;;;;;;;37.40;72.90;;;;;;5112656;28;20257;-70
2024/01/26 01:35:33;;;;;;;;;;;37.40;70.30;;;;;;5118265;28;19907;-64
2024/01/26 01:38:00;;;;;;;;;;;37.60;72.60;;;;;;5110206;28;19916;-66
2024/01/26 01:40:26;;;;;;;;;;;37.70;69.90;;;;;;5119879;28;19919;-71
2024/01/26 01:42:56;;;;;;;;;;;37.80;68.30;;;;;;5109197;28;19907;-73
2024/01/26 01:45:23;;;;;;;;;;;38.00;68.20;;;;;;5112697;28;19915;-70
2024/01/26 01:47:49;;;;;;;;;;;38.20;67.60;;;;;;5112818;28;20287;-70
2024/01/26 01:50:16;;;;;;;;;;;38.40;67.00;;;;;;5112722;28;19915;-66
2024/01/26 01:52:43;;;;;;;;;;;38.50;67.30;;;;;;5112778;28;19907;-72
2024/01/26 01:55:11;;;;;;;;;;;38.90;67.50;;;;;;5110436;28;19916;-73
2024/01/26 01:57:41;;;;;;;;;;;39.20;66.90;;;;;;5114647;28;20263;-67
2024/01/26 02:00:17;;;;;;;;;;;39.50;65.70;;;;;;5134880;27;19912;-69
2024/01/26 02:02:45;;;;;;;;;;;39.60;64.20;;;;;;5101017;27;20387;-70
2024/01/26 02:05:12;;;;;;;;;;;39.70;63.50;;;;;;5094617;28;19912;-67
2024/01/26 02:07:39;;;;;;;;;;;39.70;64.10;;;;;;5113081;27;19918;-68
2024/01/26 02:10:07;;;;;;;;;;;39.90;63.80;;;;;;5116463;28;19915;-64
2024/01/26 02:12:34;;;;;;;;;;;39.90;62.70;;;;;;5103654;28;19912;-69
2024/01/26 02:15:03;;;;;;;;;;;39.90;63.10;;;;;;5103617;28;19914;-71
2024/01/26 02:17:31;;;;;;;;;;;39.90;63.00;;;;;;5115332;28;19916;-72
2024/01/26 02:19:58;;;;;;;;;;;40.00;63.60;;;;;;5116012;28;19950;-68
2024/01/26 02:22:25;;;;;;;;;;;40.20;63.70;;;;;;5115551;27;19908;-69
2024/01/26 02:24:52;;;;;;;;;;;40.20;62.70;;;;;;5136557;27;19930;-67
2024/01/26 02:27:19;;;;;;;;;;;40.20;62.00;;;;;;5136313;27;19911;-68
2024/01/26 02:29:45;;;;;;;;;;;40.10;61.20;;;;;;5136639;27;19907;-67
2024/01/26 02:32:12;;;;;;;;;;;40.10;61.50;;;;;;5136511;27;19998;-70
2024/01/26 02:34:39;;;;;;;;;;;40.10;61.60;;;;;;5136402;27;19912;-70
2024/01/26 02:37:06;;;;;;;;;;;40.20;61.20;;;;;;5136341;27;19922;-68
2024/01/26 02:39:33;;;;;;;;;;;40.10;60.90;;;;;;5136428;27;19907;-72
2024/01/26 02:42:00;;;;;;;;;;;39.90;61.90;;;;;;5136492;27;19907;-71
2024/01/26 02:44:26;;;;;;;;;;;39.60;61.60;;;;;;5136188;27;19943;-71
2024/01/26 02:46:53;;;;;;;;;;;39.70;62.00;;;;;;5123500;27;19911;-70
2024/01/26 02:49:20;;;;;;;;;;;39.80;61.50;;;;;;5119122;27;19912;-70
2024/01/26 02:51:46;;;;;;;;;;;40.00;61.50;;;;;;5114825;27;19940;-68
2024/01/26 02:54:13;;;;;;;;;;;40.10;61.50;;;;;;5105245;28;19995;-69
2024/01/26 02:56:39;;;;;;;;;;;40.30;61.50;;;;;;5121757;27;19934;-68
2024/01/26 02:59:06;;;;;;;;;;;40.60;61.50;;;;;;5115250;27;20003;-68
2024/01/26 03:01:33;;;;;;;;;;;40.70;60.60;;;;;;5115246;28;20260;-73
2024/01/26 03:03:59;;;;;;;;;;;40.80;60.50;;;;;;5117202;27;19908;-70
2024/01/26 03:06:26;;;;;;;;;;;41.00;61.10;;;;;;5101343;27;19912;-71
2024/01/26 03:08:53;;;;;;;;;;;41.20;60.10;;;;;;5114366;28;19954;-73
2024/01/26 03:11:19;;;;;;;;;;;41.50;60.30;;;;;;5114706;28;20014;-72
2024/01/26 03:13:46;;;;;;;;;;;41.60;64.10;;;;;;5110866;28;20363;-70
2024/01/26 03:16:12;;;;;;;;;;;41.20;72.20;;;;;;5109655;27;19973;-67
2024/01/26 03:18:39;;;;;;;;;;;39.70;75.60;;;;;;5093975;28;19969;-70
2024/01/26 03:21:06;;;;;;;;;;;38.60;79.20;;;;;;5097945;27;19908;-71
2024/01/26 03:23:32;;;;;;;;;;;37.60;82.00;;;;;;5130425;27;20394;-67
2024/01/26 03:25:59;;;;;;;;;;;36.90;84.10;;;;;;5106182;28;19930;-71
2024/01/26 03:28:26;;;;;;;;;;;36.70;85.30;;;;;;5118217;27;19919;-72
2024/01/26 03:30:52;;;;;;;;;;;36.40;86.20;;;;;;5114096;28;19965;-70
2024/01/26 03:33:19;;;;;;;;;;;36.30;87.80;;;;;;5114389;27;19943;-68
2024/01/26 03:35:45;;;;;;;;;;;36.50;87.00;;;;;;5097586;28;19911;-70
2024/01/26 03:38:13;;;;;;;;;;;36.50;86.50;;;;;;5115291;27;19916;-71
2024/01/26 03:40:40;;;;;;;;;;;36.70;86.10;;;;;;5114575;28;19912;-72
2024/01/26 03:43:06;;;;;;;;;;;36.20;87.50;;;;;;5127728;27;19911;-69
2024/01/26 03:45:33;;;;;;;;;;;36.10;88.80;;;;;;5126039;27;20359;-70
2024/01/26 03:47:59;;;;;;;;;;;36.20;88.40;;;;;;5123484;27;20039;-69
2024/01/26 03:50:26;;;;;;;;;;;36.10;88.50;;;;;;5126530;27;19911;-70
2024/01/26 03:52:53;;;;;;;;;;;35.60;89.50;;;;;;5134734;27;20338;-70
2024/01/26 03:55:19;;;;;;;;;;;35.60;90.00;;;;;;5134507;27;19944;-72
2024/01/26 03:57:46;;;;;;;;;;;35.90;89.10;;;;;;5134596;27;19916;-69
2024/01/26 04:00:13;;;;;;;;;;;36.40;88.00;;;;;;5134867;27;19907;-69
2024/01/26 04:02:40;;;;;;;;;;;35.80;89.00;;;;;;5134493;27;19914;-69
2024/01/26 04:05:07;;;;;;;;;;;34.90;90.30;;;;;;5132796;27;19933;-70
2024/01/26 04:07:33;;;;;;;;;;;34.10;91.50;;;;;;5123580;27;19916;-70
2024/01/26 04:10:00;;;;;;;;;;;33.40;92.30;;;;;;5114067;28;19908;-69
2024/01/26 04:12:26;;;;;;;;;;;33.00;93.00;;;;;;5113276;28;19912;-71
2024/01/26 04:14:53;;;;;;;;;;;32.20;94.20;;;;;;5113551;28;20331;-70
2024/01/26 04:17:20;;;;;;;;;;;31.60;95.20;;;;;;5113458;28;19920;-70
2024/01/26 04:19:46;;;;;;;;;;;31.30;95.80;;;;;;5133719;27;19915;-69
2024/01/26 04:22:13;;;;;;;;;;;30.90;96.70;;;;;;5133465;27;19908;-68
2024/01/26 04:24:39;;;;;;;;;;;30.50;97.60;;;;;;5118548;27;20003;-68
2024/01/26 04:27:07;;;;;;;;;;;30.00;98.60;;;;;;5095439;28;19912;-70
2024/01/26 04:29:34;;;;;;;;;;;29.60;99.60;;;;;;5113644;28;19914;-70
2024/01/26 04:32:00;;;;;;;;;;;29.30;99.90;;;;;;5113580;28;19908;-67
2024/01/26 04:34:27;;;;;;;;;;;29.10;99.90;;;;;;5113482;28;19908;-70
2024/01/26 04:36:54;;;;;;;;;;;28.90;99.90;;;;;;5113892;28;20351;-70
2024/01/26 04:39:20;;;;;;;;;;;28.80;99.90;;;;;;5122646;27;19919;-67
2024/01/26 04:41:47;;;;;;;;;;;28.60;99.90;;;;;;5119908;27;19916;-68
2024/01/26 04:44:13;;;;;;;;;;;28.60;99.90;;;;;;5127384;27;19962;-67
2024/01/26 04:46:40;;;;;;;;;;;28.70;99.90;;;;;;5133906;27;19957;-68
2024/01/26 04:49:07;;;;;;;;;;;28.90;99.90;;;;;;5133961;27;19907;-67
2024/01/26 04:51:36;;;;;;;;;;;29.10;99.90;;;;;;5131442;27;19918;-67
2024/01/26 04:54:03;;;;;;;;;;;29.20;99.90;;;;;;5123107;27;20360;-67
2024/01/26 04:56:30;;;;;;;;;;;29.30;99.90;;;;;;5112787;28;19919;-70
2024/01/26 04:58:57;;;;;;;;;;;29.50;99.90;;;;;;5113155;28;19908;-67
2024/01/26 05:01:24;;;;;;;;;;;30.00;99.90;;;;;;5109119;28;19912;-67
2024/01/26 05:03:50;;;;;;;;;;;31.10;99.90;;;;;;5108282;28;19924;-67
2024/01/26 05:06:18;;;;;;;;;;;32.70;98.00;;;;;;5112874;28;19961;-68
2024/01/26 05:08:44;;;;;;;;;;;33.70;96.30;;;;;;5112771;28;19920;-67
2024/01/26 05:11:11;;;;;;;;;;;34.30;95.70;;;;;;5113219;28;19908;-67
2024/01/26 05:13:37;;;;;;;;;;;35.20;94.00;;;;;;5112552;28;19911;-68
2024/01/26 05:16:04;;;;;;;;;;;35.70;93.00;;;;;;5111427;28;19962;-66
2024/01/26 05:18:31;;;;;;;;;;;35.80;92.70;;;;;;5107481;28;19969;-71
2024/01/26 05:20:58;;;;;;;;;;;36.50;92.20;;;;;;5111583;28;19912;-67
2024/01/26 05:23:24;;;;;;;;;;;37.40;90.80;;;;;;5112123;28;19907;-70
2024/01/26 05:25:51;;;;;;;;;;;38.30;89.30;;;;;;5110844;28;19995;-68
2024/01/26 05:28:18;;;;;;;;;;;38.00;88.50;;;;;;5111444;28;19915;-70
2024/01/26 05:30:44;;;;;;;;;;;37.10;89.30;;;;;;5111716;28;19931;-69
2024/01/26 05:33:11;;;;;;;;;;;36.10;90.40;;;;;;5112931;28;20002;-71
2024/01/26 05:35:38;;;;;;;;;;;35.50;91.00;;;;;;5115621;27;19915;-68
2024/01/26 05:38:05;;;;;;;;;;;34.90;91.50;;;;;;5115236;28;19966;-68
2024/01/26 05:40:31;;;;;;;;;;;34.30;92.20;;;;;;5110642;28;19919;-69
2024/01/26 05:42:58;;;;;;;;;;;34.00;92.80;;;;;;5116221;27;19908;-68
2024/01/26 05:45:25;;;;;;;;;;;33.50;93.40;;;;;;5110301;28;19919;-69
2024/01/26 05:47:52;;;;;;;;;;;33.10;93.90;;;;;;5114914;28;19923;-66
2024/01/26 05:50:21;;;;;;;;;;;32.70;94.80;;;;;;5112324;28;20366;-68
2024/01/26 05:52:48;;;;;;;;;;;32.40;95.30;;;;;;5114001;28;19908;-69
2024/01/26 05:55:15;;;;;;;;;;;32.50;94.90;;;;;;5115651;28;19942;-69
2024/01/26 05:57:43;;;;;;;;;;;32.60;95.20;;;;;;5115495;28;20028;-70
2024/01/26 06:00:10;;;;;;;;;;;33.20;94.30;;;;;;5113294;28;19935;-69
2024/01/26 06:02:36;;;;;;;;;;;33.20;94.10;;;;;;5113730;28;19919;-69
2024/01/26 06:05:03;;;;;;;;;;;32.60;94.90;;;;;;5115093;28;19965;-69
2024/01/26 06:07:30;;;;;;;;;;;32.60;95.50;;;;;;5115842;28;19961;-70
2024/01/26 06:09:57;;;;;;;;;;;32.80;95.10;;;;;;5095572;28;20264;-68
2024/01/26 06:12:24;;;;;;;;;;;33.60;94.10;;;;;;5115634;28;19969;-67
2024/01/26 06:14:50;;;;;;;;;;;34.20;93.50;;;;;;5110895;28;19970;-70
2024/01/26 06:17:17;;;;;;;;;;;34.60;92.60;;;;;;5112991;27;19923;-70
2024/01/26 06:19:44;;;;;;;;;;;34.40;92.50;;;;;;5112005;28;19957;-72
2024/01/26 06:22:10;;;;;;;;;;;34.00;92.90;;;;;;5103715;28;20333;-69
2024/01/26 06:24:37;;;;;;;;;;;33.40;93.60;;;;;;5112645;28;19911;-67
2024/01/26 06:27:04;;;;;;;;;;;32.70;94.40;;;;;;5112862;28;19919;-68
2024/01/26 06:29:30;;;;;;;;;;;31.90;95.50;;;;;;5111369;27;20497;-68
2024/01/26 06:32:00;;;;;;;;;;;31.20;96.20;;;;;;5114470;27;20008;-69
2024/01/26 06:34:26;;;;;;;;;;;30.70;97.20;;;;;;5112426;28;19935;-69
2024/01/26 06:36:53;;;;;;;;;;;30.10;98.00;;;;;;5114918;28;19935;-67
2024/01/26 06:39:20;;;;;;;;;;;29.60;99.10;;;;;;5117461;27;19946;-71
2024/01/26 06:41:47;;;;;;;;;;;29.20;99.90;;;;;;5136349;27;19929;-72
2024/01/26 06:44:14;;;;;;;;;;;28.70;99.90;;;;;;5130049;27;20006;-71
2024/01/26 06:46:41;;;;;;;;;;;28.40;99.90;;;;;;5114835;28;20378;-67
2024/01/26 06:49:08;;;;;;;;;;;28.30;99.90;;;;;;5115114;28;20419;-69
2024/01/26 06:51:35;;;;;;;;;;;28.00;99.90;;;;;;5115084;28;19908;-68
2024/01/26 06:54:01;;;;;;;;;;;27.90;99.90;;;;;;5115148;28;19955;-67
2024/01/26 06:56:28;;;;;;;;;;;27.90;99.90;;;;;;5114835;28;20387;-70
2024/01/26 06:58:55;;;;;;;;;;;27.90;99.90;;;;;;5114905;28;19912;-72
2024/01/26 07:01:21;;;;;;;;;;;28.00;99.90;;;;;;5115034;28;19914;-69
2024/01/26 07:03:48;;;;;;;;;;;28.20;99.90;;;;;;5115051;28;20352;-72
2024/01/26 07:06:14;;;;;;;;;;;28.40;99.90;;;;;;5131957;27;19972;-71
2024/01/26 07:08:41;;;;;;;;;;;28.70;99.90;;;;;;5135091;27;20375;-72
2024/01/26 07:11:07;;;;;;;;;;;28.80;99.90;;;;;;5135511;27;19914;-72
2024/01/26 07:13:34;;;;;;;;;;;29.00;99.90;;;;;;5135557;27;19946;-72
2024/01/26 07:16:01;;;;;;;;;;;29.00;99.90;;;;;;5114875;28;19990;-71
2024/01/26 07:18:28;;;;;;;;;;;29.00;99.90;;;;;;5113733;28;20010;-71
2024/01/26 07:20:55;;;;;;;;;;;28.60;99.90;;;;;;5118079;27;19959;-68
2024/01/26 07:23:22;;;;;;;;;;;28.30;99.90;;;;;;5135151;27;19908;-72
2024/01/26 07:25:48;;;;;;;;;;;28.00;99.90;;;;;;5116027;27;19960;-71
2024/01/26 07:28:15;;;;;;;;;;;27.80;99.90;;;;;;5114372;28;20335;-68
2024/01/26 07:30:41;;;;;;;;;;;27.50;99.90;;;;;;5129662;27;20025;-68
2024/01/26 07:33:08;;;;;;;;;;;27.30;99.90;;;;;;5134792;27;19999;-67
2024/01/26 07:35:35;;;;;;;;;;;27.10;99.90;;;;;;5117976;27;19961;-67
2024/01/26 07:38:01;;;;;;;;;;;27.00;99.90;;;;;;5114360;28;20014;-68
2024/01/26 07:40:28;;;;;;;;;;;26.80;99.90;;;;;;5114186;28;19908;-71
2024/01/26 07:42:54;;;;;;;;;;;26.60;99.90;;;;;;5113507;28;19918;-71
2024/01/26 07:45:21;;;;;;;;;;;26.50;99.90;;;;;;5114053;28;20304;-66
2024/01/26 07:47:48;;;;;;;;;;;26.50;99.90;;;;;;5113643;28;19912;-67
2024/01/26 07:50:14;;;;;;;;;;;26.40;99.90;;;;;;5113677;28;19930;-68
2024/01/26 07:52:41;;;;;;;;;;;26.40;99.90;;;;;;5114027;28;19968;-69
2024/01/26 07:55:09;;;;;;;;;;;26.40;99.90;;;;;;5113431;28;19920;-71
2024/01/26 07:57:37;;;;;;;;;;;26.40;99.90;;;;;;5112886;28;19963;-71
2024/01/26 08:00:10;;;;;;;;;;;26.30;99.90;;;;;;5113524;28;20363;-66
2024/01/26 08:02:37;;;;;;;;;;;26.30;99.90;;;;;;5113332;28;20316;-68
2024/01/26 08:05:04;;;;;;;;;;;26.10;99.90;;;;;;5110008;28;19962;-69
2024/01/26 08:07:31;;;;;;;;;;;26.20;99.90;;;;;;5113587;28;19912;-67
2024/01/26 08:09:58;;;;;;;;;;;26.10;99.90;;;;;;5113381;28;19914;-70
2024/01/26 08:12:25;;;;;;;;;;;26.00;99.90;;;;;;5112920;27;19913;-69
2024/01/26 08:14:52;;;;;;;;;;;25.90;99.90;;;;;;5113143;28;19955;-71
2024/01/26 08:17:18;;;;;;;;;;;25.90;99.90;;;;;;5113525;28;20010;-67
2024/01/26 08:19:45;;;;;;;;;;;25.90;99.90;;;;;;5113645;28;20010;-69
2024/01/26 08:22:11;;;;;;;;;;;26.00;99.90;;;;;;5113279;28;19908;-69
2024/01/26 08:24:38;;;;;;;;;;;26.00;99.90;;;;;;5113309;28;20419;-67
2024/01/26 08:27:05;;;;;;;;;;;26.00;99.90;;;;;;5114588;27;19919;-69
2024/01/26 08:29:32;;;;;;;;;;;25.80;99.90;;;;;;5112943;28;19912;-68
2024/01/26 08:31:58;;;;;;;;;;;25.80;99.90;;;;;;5113516;28;19912;-68
2024/01/26 08:34:25;;;;;;;;;;;25.70;99.90;;;;;;5109166;28;19918;-72
2024/01/26 08:36:51;;;;;;;;;;;25.70;99.90;;;;;;5113054;28;19916;-70
2024/01/26 08:39:18;;;;;;;;;;;25.70;99.90;;;;;;5113256;28;19912;-70
2024/01/26 08:41:46;;;;;;;;;;;25.60;99.90;;;;;;5113168;28;19961;-67
2024/01/26 08:44:13;;;;;;;;;;;25.50;99.90;;;;;;5112900;28;20435;-67
2024/01/26 08:46:40;;;;;;;;;;;25.50;99.90;;;;;;5112941;28;20334;-70
2024/01/26 08:49:06;;;;;;;;;;;25.60;99.90;;;;;;5100939;28;19916;-68
2024/01/26 08:51:33;;;;;;;;;;;25.50;99.90;;;;;;5113404;28;19907;-68
2024/01/26 08:54:00;;;;;;;;;;;25.50;99.90;;;;;;5112872;28;19916;-71
2024/01/26 08:56:26;;;;;;;;;;;25.40;99.90;;;;;;5112675;28;19920;-72
2024/01/26 08:58:54;;;;;;;;;;;25.40;99.90;;;;;;5113020;28;19922;-71
2024/01/26 09:01:21;;;;;;;;;;;25.40;99.90;;;;;;5121312;27;19971;-70
2024/01/26 09:03:47;;;;;;;;;;;25.30;99.90;;;;;;5127971;28;19981;-68
2024/01/26 09:06:14;;;;;;;;;;;25.30;99.90;;;;;;5095355;28;19908;-71
2024/01/26 09:08:41;;;;;;;;;;;25.40;99.90;;;;;;5095454;28;19981;-71
2024/01/26 09:11:09;;;;;;;;;;;25.30;99.90;;;;;;5113107;28;19915;-71
2024/01/26 09:13:35;;;;;;;;;;;25.30;99.90;;;;;;5112881;28;19969;-72
2024/01/26 09:16:02;;;;;;;;;;;25.30;99.90;;;;;;5112544;28;19908;-72
2024/01/26 09:18:29;;;;;;;;;;;25.30;99.90;;;;;;5112647;28;19908;-73
2024/01/26 09:20:55;;;;;;;;;;;25.30;99.90;;;;;;5112577;28;19908;-72
2024/01/26 09:23:22;;;;;;;;;;;25.30;99.90;;;;;;5112777;28;19915;-72
2024/01/26 09:25:48;;;;;;;;;;;25.30;99.90;;;;;;5110585;28;19908;-72
2024/01/26 09:28:15;;;;;;;;;;;25.30;99.90;;;;;;5112726;28;19911;-69
2024/01/26 09:30:42;;;;;;;;;;;25.30;99.90;;;;;;5127091;28;19911;-73
2024/01/26 09:33:09;;;;;;;;;;;25.30;99.90;;;;;;5133013;28;20446;-73
2024/01/26 09:35:35;;;;;;;;;;;25.20;99.90;;;;;;5114292;28;19912;-70
2024/01/26 09:38:02;;;;;;;;;;;25.20;99.90;;;;;;5112336;28;20378;-71
2024/01/26 09:40:28;;;;;;;;;;;25.20;99.90;;;;;;5112451;28;20003;-66
2024/01/26 09:42:55;;;;;;;;;;;25.20;99.90;;;;;;5112022;28;19999;-67
2024/01/26 09:45:23;;;;;;;;;;;25.10;99.90;;;;;;5112097;28;19911;-69
2024/01/26 09:47:52;;;;;;;;;;;25.10;99.90;;;;;;5112514;28;19934;-69
2024/01/26 09:50:21;;;;;;;;;;;25.10;99.90;;;;;;5112631;28;19919;-69
2024/01/26 09:52:48;;;;;;;;;;;25.10;99.90;;;;;;5132560;28;20363;-70
2024/01/26 09:55:15;;;;;;;;;;;25.10;99.90;;;;;;5118197;28;19966;-67
2024/01/26 09:57:44;;;;;;;;;;;25.10;99.90;;;;;;5112543;28;20412;-67
2024/01/26 10:00:12;;;;;;;;;;;25.10;99.90;;;;;;5112573;28;19919;-66
2024/01/26 10:02:39;;;;;;;;;;;25.10;99.90;;;;;;5112567;28;19908;-68
2024/01/26 10:05:06;;;;;;;;;;;25.10;99.90;;;;;;5124184;28;19918;-69
2024/01/26 10:07:32;;;;;;;;;;;25.10;99.90;;;;;;5132850;28;19907;-67
2024/01/26 10:09:59;;;;;;;;;;;25.10;99.90;;;;;;5111161;28;19958;-69
2024/01/26 10:12:26;;;;;;;;;;;25.10;99.90;;;;;;5100983;28;19923;-68
2024/01/26 10:15:02;;;;;;;;;;;25.10;99.90;;;;;;5111152;28;20458;-68
2024/01/26 10:17:29;;;;;;;;;;;25.10;99.90;;;;;;5110437;28;19923;-68
2024/01/26 10:20:25;;;;;;;;;;;25.00;99.90;;;;;;5096361;28;20330;-69
2024/01/26 10:22:52;;;;;;;;;;;25.00;99.90;;;;;;5095359;28;19908;-69
2024/01/26 10:25:19;;;;;;;;;;;25.00;99.90;;;;;;5120291;27;19912;-67
2024/01/26 10:27:45;;;;;;;;;;;25.00;99.90;;;;;;5115797;28;19907;-69
2024/01/26 10:30:13;;;;;;;;;;;25.00;99.90;;;;;;5116138;27;19919;-69
2024/01/26 10:32:40;;;;;;;;;;;25.10;99.90;;;;;;5115411;28;19908;-66
2024/01/26 10:35:08;;;;;;;;;;;25.00;99.90;;;;;;5115054;27;19939;-69
2024/01/26 10:37:36;;;;;;;;;;;25.10;99.90;;;;;;5120812;27;19927;-72
2024/01/26 10:40:07;;;;;;;;;;;25.10;99.90;;;;;;5118697;27;19911;-67
2024/01/26 10:42:34;;;;;;;;;;;25.10;99.90;;;;;;5134437;27;20307;-68
2024/01/26 10:45:01;;;;;;;;;;;25.10;99.90;;;;;;5124211;27;19912;-67
2024/01/26 10:47:28;;;;;;;;;;;25.00;99.90;;;;;;5125604;27;20356;-67
2024/01/26 10:49:57;;;;;;;;;;;25.00;99.90;;;;;;5105776;27;19927;-69
2024/01/26 10:52:24;;;;;;;;;;;25.10;99.90;;;;;;5112591;27;20084;-71
2024/01/26 10:54:51;;;;;;;;;;;25.00;99.90;;;;;;5125008;27;19918;-72
2024/01/26 10:57:19;;;;;;;;;;;24.90;99.90;;;;;;5114897;28;19916;-71
2024/01/26 10:59:47;;;;;;;;;;;24.90;99.90;;;;;;5115059;28;19918;-71
2024/01/26 11:02:15;;;;;;;;;;;24.80;99.90;;;;;;5114958;28;19915;-71
2024/01/26 11:04:42;;;;;;;;;;;24.80;99.90;;;;;;5113950;27;19911;-71
2024/01/26 11:07:09;;;;;;;;;;;24.90;99.90;;;;;;5133235;27;19911;-72
2024/01/26 11:09:38;;;;;;;;;;;24.80;99.90;;;;;;5135494;27;20385;-70
2024/01/26 11:12:08;;;;;;;;;;;24.80;99.90;;;;;;5135409;27;19953;-68
2024/01/26 11:14:35;;;;;;;;;;;24.90;99.90;;;;;;5127314;27;19912;-67
2024/01/26 11:17:11;;;;;;;;;;;24.80;99.90;;;;;;5114545;28;19980;-67
2024/01/26 11:19:37;;;;;;;;;;;24.80;99.90;;;;;;5098182;27;20404;-67
2024/01/26 11:22:08;;;;;;;;;;;24.90;99.90;;;;;;5096455;28;19915;-67
2024/01/26 11:24:35;;;;;;;;;;;24.90;99.90;;;;;;5114519;27;19934;-66
2024/01/26 11:27:02;;;;;;;;;;;24.90;99.90;;;;;;5114484;28;19907;-67
2024/01/26 11:29:32;;;;;;;;;;;24.80;99.90;;;;;;5110678;27;19919;-71
2024/01/26 11:31:59;;;;;;;;;;;24.90;99.90;;;;;;5114373;28;19908;-66
2024/01/26 11:34:25;;;;;;;;;;;24.90;99.90;;;;;;5114387;28;19908;-70
2024/01/26 11:37:12;;;;;;;;;;;24.90;99.90;;;;;;5123216;27;19927;-68
2024/01/26 11:39:39;;;;;;;;;;;24.90;99.90;;;;;;5126759;27;19962;-67
2024/01/26 11:42:10;;;;;;;;;;;24.90;99.90;;;;;;5113793;28;19919;-68
2024/01/26 11:44:39;;;;;;;;;;;24.80;99.90;;;;;;5113893;28;20364;-66
2024/01/26 11:47:09;;;;;;;;;;;24.80;99.90;;;;;;5128415;27;19912;-69
2024/01/26 11:49:40;;;;;;;;;;;24.80;99.90;;;;;;5132871;27;19914;-69
2024/01/26 11:52:07;;;;;;;;;;;24.80;99.90;;;;;;5114351;28;20399;-69
2024/01/26 11:54:33;;;;;;;;;;;24.80;99.90;;;;;;5113667;28;19911;-72
2024/01/26 11:57:01;;;;;;;;;;;24.80;99.90;;;;;;5095791;28;19920;-71
2024/01/26 11:59:31;;;;;;;;;;;24.70;99.90;;;;;;5113947;28;20041;-70
2024/01/26 12:01:59;;;;;;;;;;;24.70;99.90;;;;;;5113924;28;19919;-71
2024/01/26 12:04:25;;;;;;;;;;;24.60;99.90;;;;;;5113481;28;19912;-68
2024/01/26 12:06:52;;;;;;;;;;;24.50;99.90;;;;;;5119199;27;19907;-71
2024/01/26 12:09:19;;;;;;;;;;;24.60;99.90;;;;;;5113502;27;19911;-71
2024/01/26 12:11:46;;;;;;;;;;;24.60;99.90;;;;;;5113321;28;19991;-71
2024/01/26 12:14:13;;;;;;;;;;;24.60;99.90;;;;;;5112944;28;19939;-67
2024/01/26 12:16:40;;;;;;;;;;;24.60;99.90;;;;;;5113694;28;20371;-66
2024/01/26 12:19:07;;;;;;;;;;;24.60;99.90;;;;;;5127511;27;20006;-68
2024/01/26 12:21:35;;;;;;;;;;;24.60;99.90;;;;;;5116698;27;20623;-64
2024/01/26 12:24:07;;;;;;;;;;;24.70;99.90;;;;;;5113248;28;19919;-69
2024/01/26 12:26:34;;;;;;;;;;;24.60;99.90;;;;;;5113221;28;20016;-68
2024/01/26 12:29:00;;;;;;;;;;;24.60;99.90;;;;;;5113142;28;19915;-68
2024/01/26 12:31:28;;;;;;;;;;;24.60;99.90;;;;;;5122853;27;19908;-70
2024/01/26 12:33:54;;;;;;;;;;;24.60;99.90;;;;;;5131033;27;19911;-69
2024/01/26 12:36:21;;;;;;;;;;;24.60;99.90;;;;;;5113044;27;19957;-69
2024/01/26 12:38:47;;;;;;;;;;;24.60;99.90;;;;;;5113262;28;19911;-71
2024/01/26 12:41:14;;;;;;;;;;;24.50;99.90;;;;;;5113094;28;19908;-68
2024/01/26 12:43:41;;;;;;;;;;;24.60;99.90;;;;;;5112650;28;19947;-71
2024/01/26 12:46:10;;;;;;;;;;;24.60;99.90;;;;;;5113258;28;19995;-69
2024/01/26 12:48:37;;;;;;;;;;;24.60;99.90;;;;;;5112726;28;20261;-69
2024/01/26 12:51:03;;;;;;;;;;;24.50;99.90;;;;;;5094526;28;19912;-70
2024/01/26 12:53:31;;;;;;;;;;;24.40;99.90;;;;;;5112301;28;19912;-69
2024/01/26 12:55:58;;;;;;;;;;;24.40;99.90;;;;;;5109183;28;19928;-70
2024/01/26 12:58:24;;;;;;;;;;;24.30;99.90;;;;;;5112864;28;20372;-69
2024/01/26 13:00:51;;;;;;;;;;;24.30;99.90;;;;;;5112909;28;19908;-68
2024/01/26 13:03:18;;;;;;;;;;;24.30;99.90;;;;;;5113225;28;19984;-70
2024/01/26 13:05:45;;;;;;;;;;;24.30;99.90;;;;;;5112982;28;19915;-68
2024/01/26 13:08:12;;;;;;;;;;;24.20;99.90;;;;;;5112831;28;20359;-70
2024/01/26 13:10:39;;;;;;;;;;;24.20;99.90;;;;;;5113070;28;19907;-71
2024/01/26 13:13:05;;;;;;;;;;;24.10;99.90;;;;;;5118917;28;19946;-69
2024/01/26 13:15:32;;;;;;;;;;;24.20;99.90;;;;;;5120604;28;20351;-65
2024/01/26 13:17:59;;;;;;;;;;;24.20;99.90;;;;;;5112824;28;19920;-67
2024/01/26 13:20:25;;;;;;;;;;;24.00;99.90;;;;;;5112990;28;20023;-67
2024/01/26 13:22:52;;;;;;;;;;;24.10;99.90;;;;;;5113295;28;19912;-68
2024/01/26 13:25:19;;;;;;;;;;;24.00;99.90;;;;;;5113019;28;19947;-70
2024/01/26 13:27:45;;;;;;;;;;;23.90;99.90;;;;;;5113074;28;20394;-67
2024/01/26 13:30:12;;;;;;;;;;;23.80;99.90;;;;;;5113013;28;20364;-70
2024/01/26 13:32:39;;;;;;;;;;;23.80;99.90;;;;;;5112441;28;19919;-66
2024/01/26 13:35:06;;;;;;;;;;;23.80;99.90;;;;;;5112448;28;20002;-67
2024/01/26 13:37:32;;;;;;;;;;;23.80;99.90;;;;;;5112805;28;20015;-67
2024/01/26 13:39:59;;;;;;;;;;;23.90;99.90;;;;;;5112840;28;19908;-70
2024/01/26 13:42:26;;;;;;;;;;;23.90;99.90;;;;;;5112907;28;19947;-66
2024/01/26 13:44:54;;;;;;;;;;;23.80;99.90;;;;;;5112905;28;20403;-69
2024/01/26 13:47:20;;;;;;;;;;;23.60;99.90;;;;;;5112608;28;19991;-70
2024/01/26 13:49:52;;;;;;;;;;;23.60;99.90;;;;;;5112798;28;19908;-71
2024/01/26 13:52:19;;;;;;;;;;;23.60;99.90;;;;;;5117086;28;19919;-66
2024/01/26 13:54:45;;;;;;;;;;;23.60;99.90;;;;;;5133427;27;19911;-69
2024/01/26 13:57:14;;;;;;;;;;;23.60;99.90;;;;;;5136809;27;19916;-69
2024/01/26 13:59:40;;;;;;;;;;;23.60;99.90;;;;;;5116738;27;19919;-66
2024/01/26 14:02:07;;;;;;;;;;;23.60;99.90;;;;;;5116740;28;19992;-66
2024/01/26 14:04:35;;;;;;;;;;;23.50;99.90;;;;;;5116711;28;19993;-67
2024/01/26 14:07:01;;;;;;;;;;;23.60;99.90;;;;;;5116503;28;20369;-70
2024/01/26 14:09:28;;;;;;;;;;;23.60;99.90;;;;;;5116400;28;19907;-66
2024/01/26 14:11:56;;;;;;;;;;;23.60;99.90;;;;;;5119607;27;19911;-68
2024/01/26 14:14:23;;;;;;;;;;;23.50;99.90;;;;;;5136452;27;19992;-69